Meteo Giornale » Osservazioni meteo Stati Uniti (USA) » Clarksville Outlaw Fld
ore: 11:52 - Osservazioni Meteo Clarksville Outlaw Fld
Lat. 36° 37' N Lon. 87° 24' W Alt. 168 metri s.l.m.
34 °C
Sereno
Temp. 24 Ore
22 °C
35 °C
Nord
5.5 Km/h
Dew point 23 °C
Umidità 52 %
Visibilità 10 Km
Il sole sorge alle ore 06:21
Il sole tramonta alle ore 19:18
| Data e Ora | Cielo e Fenomeni | T °C | DP °C | Um. % | Pres. hPa | Vis. km | Vento km/h | |
|---|---|---|---|---|---|---|---|---|
| Oggi h: 11:52 | Sereno | 34 | 23 | 52 | 1020 | 10 | N 5.5 | |
| Oggi h: 10:52 | Sereno | 33 | 22 | 52 | 1020 | 10 | SO 11.1 | |
| Oggi h: 09:52 | Sereno | 32 | 23 | 59 | 1020 | 10 | SO 13 | |
| Oggi h: 08:52 | Sereno | 29 | 22 | 66 | 1020 | 10 | O/SO 9.3 | |
| Oggi h: 07:52 | Sereno | 26 | 22 | 78 | 1020 | 10 | N 0 | |
| Oggi h: 06:52 | Foschia | 23 | 22 | 94 | 1019 | 10 | N 0 | |
| Oggi h: 05:52 | Sereno | 23 | 22 | 94 | 1019 | 13 | N 5.5 | |
| Oggi h: 04:52 | Sereno | 22 | 22 | 100 | 1018 | 11 | N 0 | |
| Oggi h: 04:10 | Foschia | 23 | 22 | 94 | 1018 | 6 | N 0 | |
| Oggi h: 04:03 | Foschia | 22 | 22 | 100 | 1018 | 2 | N 0 | |
| Oggi h: 03:52 | Foschia | 23 | 22 | 94 | 1018 | 5 | N 0 | |
| Oggi h: 03:50 | Foschia | 23 | 22 | 94 | 1018 | 2 | N 0 | |
| Oggi h: 03:46 | Foschia | 23 | 22 | 94 | 1018 | 5 | N 0 | |
| Oggi h: 03:35 | Foschia | 22 | 21 | 94 | 1018 | 5 | N 0 | |
| Oggi h: 02:52 | Sereno | 22 | 21 | 94 | 1018 | 13 | N 0 | |
| Oggi h: 01:52 | Sereno | 23 | 22 | 94 | 1018 | 10 | N 0 | |
| Oggi h: 00:52 | Sereno | 23 | 21 | 88 | 1018 | 10 | N 0 | |
| Ieri h: 23:52 | Sereno | 24 | 22 | 88 | 1018 | 10 | N 0 | |
| Ieri h: 22:52 | Sereno | 24 | 22 | 88 | 1018 | 10 | N 0 | |
| Ieri h: 21:52 | Sereno | 26 | 21 | 73 | 1018 | 10 | N 0 | |
| Ieri h: 20:52 | Sereno | 27 | 22 | 74 | 1018 | 10 | N 0 | |
| Ieri h: 19:52 | Sereno | 29 | 21 | 62 | 1017 | 10 | S/SO 7.4 | |
| Ieri h: 18:52 | Sereno | 32 | 21 | 52 | 1017 | 10 | O/SO 7.4 | |
| Ieri h: 17:52 | Sereno | 34 | 21 | 46 | 1017 | 10 | O/SO 9.3 | |
| Ieri h: 16:52 | Sereno | 35 | 21 | 44 | 1018 | 10 | N 7.4 | |
| Ieri h: 15:52 | Sereno | 34 | 21 | 46 | 1018 | 10 | O 11.1 | |
| Ieri h: 14:52 | Poco Nuvoloso | 34 | 22 | 49 | 1018 | 10 | O/SO 14.8 | |
| Ieri h: 13:52 | Nuvoloso | 34 | 22 | 49 | 1019 | 10 | O 11.1 | |
| Ieri h: 12:52 | Nuvoloso | 34 | 22 | 49 | 1020 | 10 | S 13 | |



